Roann, Indiana
Current Conditions -  °F | °C
As of 3:55 AM on Thursday 23 Oct 2014 (Local Time) from KRCR Reporting Station
Haze Haze  
Wind Chill: 36°   Ceiling: NA
Heat Index: 36°   Visibility: 2.5mi
Dew Point: 36°   Wind: 0mph
Humidity: 100%   Direction: NA
Pressure: 30.27"   Gusts: NA
Location:  40.91°N, 85.92°W
Report Text: KRCR 230755Z AUTO 00000KT 2 1/2SM BR 02/02 A3027 RMK AO2 SKY OBSCURED VIS 1 1/2V4
Loading
Personal Weather Stations






























Interactive Weather Map
Tropical Storm Tracking
New forecast layout! Learn more

10-Day Weather Forecast

Advertisements
Track Severe Weather on mobile